FZUS weather

Tshikaji Airport
Tshikaji, Kasai-Occidental Province, Congo (Kinshasa)

Public forecast

Using degrees Celsius for public forecast. Weather courtesy of forecast.io.

METAR (pilot weather report)

Closest report is Mbuji Mayi Airport, 69.4 nm (128.5 km) E. Retrieved 2019/05/21 06:00 UTC (28 minutes ago):

FZWA 210600Z 25004KT 8000 -RA SCT010 FEW020CB BKN100 22/21 Q1015 BECMG TS

TAF (pilot weather forecast)

Forecast is more than 12 hours old.

Closest forecast is Mbuji Mayi Airport, 69.4 nm (128.5 km) E. Retrieved 2019/05/03 12:00 UTC (18 days ago):

TAF FZWA 031100Z 0312/0418 16010KT 9999 FEW022 FEW030CB TEMPO 0313/0319 TS PROB30 TEMPO 0315/0318 6000 -TSRA BECMG 0320/0322 00000KT SCT014 BECMG 0406/0408 20008KT FEW018